sensor_id;sensor_type;location;lat;lon;timestamp;temperature;humidity
32809;DHT22;19159;48.178;16.386;2023-11-18T00:00:25;10.10;83.50
32809;DHT22;19159;48.178;16.386;2023-11-18T00:02:51;10.00;83.60
32809;DHT22;19159;48.178;16.386;2023-11-18T00:05:17;10.00;83.80
32809;DHT22;19159;48.178;16.386;2023-11-18T00:07:43;10.00;84.20
32809;DHT22;19159;48.178;16.386;2023-11-18T00:10:09;9.90;84.10
32809;DHT22;19159;48.178;16.386;2023-11-18T00:12:35;9.90;84.40
32809;DHT22;19159;48.178;16.386;2023-11-18T00:15:04;9.90;84.60
32809;DHT22;19159;48.178;16.386;2023-11-18T00:17:31;9.90;84.60
32809;DHT22;19159;48.178;16.386;2023-11-18T00:19:57;9.90;84.60
32809;DHT22;19159;48.178;16.386;2023-11-18T00:22:23;10.00;84.60
32809;DHT22;19159;48.178;16.386;2023-11-18T00:24:48;9.90;84.50
32809;DHT22;19159;48.178;16.386;2023-11-18T00:27:15;9.90;84.60
32809;DHT22;19159;48.178;16.386;2023-11-18T00:29:41;10.00;84.70
32809;DHT22;19159;48.178;16.386;2023-11-18T00:32:07;9.90;84.60
32809;DHT22;19159;48.178;16.386;2023-11-18T00:34:35;9.90;84.40
32809;DHT22;19159;48.178;16.386;2023-11-18T00:37:01;9.90;84.50
32809;DHT22;19159;48.178;16.386;2023-11-18T00:39:27;9.90;84.20
32809;DHT22;19159;48.178;16.386;2023-11-18T00:41:53;9.90;84.00
32809;DHT22;19159;48.178;16.386;2023-11-18T00:44:19;9.80;83.90
32809;DHT22;19159;48.178;16.386;2023-11-18T00:46:44;9.90;83.70
32809;DHT22;19159;48.178;16.386;2023-11-18T00:49:10;9.90;83.60
32809;DHT22;19159;48.178;16.386;2023-11-18T00:51:37;10.00;83.60
32809;DHT22;19159;48.178;16.386;2023-11-18T00:54:04;9.90;83.40
32809;DHT22;19159;48.178;16.386;2023-11-18T00:56:32;9.90;83.40
32809;DHT22;19159;48.178;16.386;2023-11-18T00:58:58;9.90;83.10
32809;DHT22;19159;48.178;16.386;2023-11-18T01:01:24;9.90;83.20
32809;DHT22;19159;48.178;16.386;2023-11-18T01:03:49;9.80;83.40
32809;DHT22;19159;48.178;16.386;2023-11-18T01:06:15;9.80;83.50
32809;DHT22;19159;48.178;16.386;2023-11-18T01:08:45;9.70;83.80
32809;DHT22;19159;48.178;16.386;2023-11-18T01:11:10;9.70;83.90
32809;DHT22;19159;48.178;16.386;2023-11-18T01:13:36;9.70;84.00
32809;DHT22;19159;48.178;16.386;2023-11-18T01:16:02;9.70;84.10
32809;DHT22;19159;48.178;16.386;2023-11-18T01:18:29;9.70;84.10
32809;DHT22;19159;48.178;16.386;2023-11-18T01:20:55;9.60;84.40
32809;DHT22;19159;48.178;16.386;2023-11-18T01:23:21;9.60;84.50
32809;DHT22;19159;48.178;16.386;2023-11-18T01:25:47;9.60;84.50
32809;DHT22;19159;48.178;16.386;2023-11-18T01:28:15;9.60;84.70
32809;DHT22;19159;48.178;16.386;2023-11-18T01:30:40;9.60;84.70
32809;DHT22;19159;48.178;16.386;2023-11-18T01:33:07;9.50;84.40
32809;DHT22;19159;48.178;16.386;2023-11-18T01:35:33;9.50;84.50
32809;DHT22;19159;48.178;16.386;2023-11-18T01:37:59;9.40;85.00
32809;DHT22;19159;48.178;16.386;2023-11-18T01:40:24;9.30;84.70
32809;DHT22;19159;48.178;16.386;2023-11-18T01:42:50;9.40;84.80
32809;DHT22;19159;48.178;16.386;2023-11-18T01:45:16;9.40;85.00
32809;DHT22;19159;48.178;16.386;2023-11-18T01:47:45;9.40;85.10
32809;DHT22;19159;48.178;16.386;2023-11-18T01:50:15;9.40;85.10
32809;DHT22;19159;48.178;16.386;2023-11-18T01:52:42;9.40;85.10
32809;DHT22;19159;48.178;16.386;2023-11-18T01:55:09;9.40;85.00
32809;DHT22;19159;48.178;16.386;2023-11-18T01:57:35;9.30;85.00
32809;DHT22;19159;48.178;16.386;2023-11-18T02:00:03;9.30;85.20
32809;DHT22;19159;48.178;16.386;2023-11-18T02:02:32;9.30;85.20
32809;DHT22;19159;48.178;16.386;2023-11-18T02:04:58;9.20;85.20
32809;DHT22;19159;48.178;16.386;2023-11-18T02:07:27;9.30;85.30
32809;DHT22;19159;48.178;16.386;2023-11-18T02:09:54;9.30;85.30
32809;DHT22;19159;48.178;16.386;2023-11-18T02:12:31;9.30;85.20
32809;DHT22;19159;48.178;16.386;2023-11-18T02:15:00;9.40;85.10
32809;DHT22;19159;48.178;16.386;2023-11-18T02:17:27;9.40;84.80
32809;DHT22;19159;48.178;16.386;2023-11-18T02:19:56;9.40;84.80
32809;DHT22;19159;48.178;16.386;2023-11-18T02:22:23;9.50;84.70
32809;DHT22;19159;48.178;16.386;2023-11-18T02:24:49;9.50;84.50
32809;DHT22;19159;48.178;16.386;2023-11-18T02:27:15;9.50;84.50
32809;DHT22;19159;48.178;16.386;2023-11-18T02:29:44;9.50;84.40
32809;DHT22;19159;48.178;16.386;2023-11-18T02:32:30;9.60;84.50
32809;DHT22;19159;48.178;16.386;2023-11-18T02:37:53;9.60;85.10
32809;DHT22;19159;48.178;16.386;2023-11-18T02:40:26;9.60;84.10
32809;DHT22;19159;48.178;16.386;2023-11-18T02:42:57;9.60;84.10
32809;DHT22;19159;48.178;16.386;2023-11-18T02:45:24;9.50;84.00
32809;DHT22;19159;48.178;16.386;2023-11-18T02:47:51;9.40;84.10
32809;DHT22;19159;48.178;16.386;2023-11-18T02:50:17;9.40;84.30
32809;DHT22;19159;48.178;16.386;2023-11-18T02:52:44;9.40;84.50
32809;DHT22;19159;48.178;16.386;2023-11-18T02:55:10;9.40;84.40
32809;DHT22;19159;48.178;16.386;2023-11-18T02:57:36;9.30;84.40
32809;DHT22;19159;48.178;16.386;2023-11-18T03:00:03;9.30;84.80
32809;DHT22;19159;48.178;16.386;2023-11-18T03:02:30;9.30;84.80
32809;DHT22;19159;48.178;16.386;2023-11-18T03:04:59;9.40;84.70
32809;DHT22;19159;48.178;16.386;2023-11-18T03:07:25;9.50;84.60
32809;DHT22;19159;48.178;16.386;2023-11-18T03:09:56;9.50;84.30
32809;DHT22;19159;48.178;16.386;2023-11-18T03:12:36;9.60;84.30
32809;DHT22;19159;48.178;16.386;2023-11-18T03:15:06;9.60;84.10
32809;DHT22;19159;48.178;16.386;2023-11-18T03:17:34;9.60;84.00
32809;DHT22;19159;48.178;16.386;2023-11-18T03:20:00;9.60;83.70
32809;DHT22;19159;48.178;16.386;2023-11-18T03:22:26;9.60;83.50
32809;DHT22;19159;48.178;16.386;2023-11-18T03:24:51;9.60;83.60
32809;DHT22;19159;48.178;16.386;2023-11-18T03:27:17;9.60;83.70
32809;DHT22;19159;48.178;16.386;2023-11-18T03:29:43;9.60;83.60
32809;DHT22;19159;48.178;16.386;2023-11-18T03:32:11;9.60;83.30
32809;DHT22;19159;48.178;16.386;2023-11-18T03:34:38;9.60;83.30
32809;DHT22;19159;48.178;16.386;2023-11-18T03:37:03;9.60;83.30
32809;DHT22;19159;48.178;16.386;2023-11-18T03:39:29;9.60;83.00
32809;DHT22;19159;48.178;16.386;2023-11-18T03:41:56;9.70;83.00
32809;DHT22;19159;48.178;16.386;2023-11-18T03:44:23;9.70;82.90
32809;DHT22;19159;48.178;16.386;2023-11-18T03:46:49;9.70;82.70
32809;DHT22;19159;48.178;16.386;2023-11-18T03:49:15;9.70;82.70
32809;DHT22;19159;48.178;16.386;2023-11-18T03:51:41;9.70;82.40
32809;DHT22;19159;48.178;16.386;2023-11-18T03:54:06;9.70;82.50
32809;DHT22;19159;48.178;16.386;2023-11-18T03:56:34;9.70;82.60
32809;DHT22;19159;48.178;16.386;2023-11-18T03:58:59;9.80;82.40
32809;DHT22;19159;48.178;16.386;2023-11-18T04:01:26;9.90;82.30
32809;DHT22;19159;48.178;16.386;2023-11-18T04:03:54;9.80;82.00
32809;DHT22;19159;48.178;16.386;2023-11-18T04:06:21;9.80;82.00
32809;DHT22;19159;48.178;16.386;2023-11-18T04:08:47;9.80;82.10
32809;DHT22;19159;48.178;16.386;2023-11-18T04:11:14;9.80;83.00
32809;DHT22;19159;48.178;16.386;2023-11-18T04:13:40;9.80;82.30
32809;DHT22;19159;48.178;16.386;2023-11-18T04:16:15;9.80;82.20
32809;DHT22;19159;48.178;16.386;2023-11-18T04:18:42;9.80;82.50
32809;DHT22;19159;48.178;16.386;2023-11-18T04:21:09;9.80;82.60
32809;DHT22;19159;48.178;16.386;2023-11-18T04:23:36;9.70;82.90
32809;DHT22;19159;48.178;16.386;2023-11-18T04:26:04;9.70;83.10
32809;DHT22;19159;48.178;16.386;2023-11-18T04:28:30;9.80;83.20
32809;DHT22;19159;48.178;16.386;2023-11-18T04:30:56;9.70;83.30
32809;DHT22;19159;48.178;16.386;2023-11-18T04:33:21;9.60;83.50
32809;DHT22;19159;48.178;16.386;2023-11-18T04:35:47;9.60;83.80
32809;DHT22;19159;48.178;16.386;2023-11-18T04:38:13;9.50;84.00
32809;DHT22;19159;48.178;16.386;2023-11-18T04:40:39;9.50;84.30
32809;DHT22;19159;48.178;16.386;2023-11-18T04:43:06;9.60;84.30
32809;DHT22;19159;48.178;16.386;2023-11-18T04:45:32;9.60;84.10
32809;DHT22;19159;48.178;16.386;2023-11-18T04:47:58;9.60;84.10
32809;DHT22;19159;48.178;16.386;2023-11-18T04:50:25;9.50;84.10
32809;DHT22;19159;48.178;16.386;2023-11-18T04:52:50;9.40;84.30
32809;DHT22;19159;48.178;16.386;2023-11-18T04:55:16;9.50;84.50
32809;DHT22;19159;48.178;16.386;2023-11-18T04:57:42;9.40;84.40
32809;DHT22;19159;48.178;16.386;2023-11-18T05:00:09;9.50;84.40
32809;DHT22;19159;48.178;16.386;2023-11-18T05:02:38;9.50;84.30
32809;DHT22;19159;48.178;16.386;2023-11-18T05:05:04;9.50;84.40
32809;DHT22;19159;48.178;16.386;2023-11-18T05:07:33;9.50;84.10
32809;DHT22;19159;48.178;16.386;2023-11-18T05:10:00;9.60;84.20
32809;DHT22;19159;48.178;16.386;2023-11-18T05:12:26;9.60;84.10
32809;DHT22;19159;48.178;16.386;2023-11-18T05:14:52;9.60;84.30
32809;DHT22;19159;48.178;16.386;2023-11-18T05:17:17;9.60;84.20
32809;DHT22;19159;48.178;16.386;2023-11-18T05:19:43;9.60;84.40
32809;DHT22;19159;48.178;16.386;2023-11-18T05:22:09;9.50;84.40
32809;DHT22;19159;48.178;16.386;2023-11-18T05:24:35;9.40;84.60
32809;DHT22;19159;48.178;16.386;2023-11-18T05:27:00;9.40;85.00
32809;DHT22;19159;48.178;16.386;2023-11-18T05:29:28;9.40;85.20
32809;DHT22;19159;48.178;16.386;2023-11-18T05:31:54;9.50;85.10
32809;DHT22;19159;48.178;16.386;2023-11-18T05:34:22;9.40;85.30
32809;DHT22;19159;48.178;16.386;2023-11-18T05:36:48;9.50;85.30
32809;DHT22;19159;48.178;16.386;2023-11-18T05:39:16;9.50;85.40
32809;DHT22;19159;48.178;16.386;2023-11-18T05:41:42;9.50;85.50
32809;DHT22;19159;48.178;16.386;2023-11-18T05:44:11;9.50;85.40
32809;DHT22;19159;48.178;16.386;2023-11-18T05:46:43;9.60;85.40
32809;DHT22;19159;48.178;16.386;2023-11-18T05:49:12;9.60;85.20
32809;DHT22;19159;48.178;16.386;2023-11-18T05:51:39;9.60;85.30
32809;DHT22;19159;48.178;16.386;2023-11-18T05:54:06;9.60;85.00
32809;DHT22;19159;48.178;16.386;2023-11-18T05:56:32;9.70;84.90
32809;DHT22;19159;48.178;16.386;2023-11-18T05:58:58;9.70;84.90
32809;DHT22;19159;48.178;16.386;2023-11-18T06:01:24;9.70;84.90
32809;DHT22;19159;48.178;16.386;2023-11-18T06:03:53;9.60;84.90
32809;DHT22;19159;48.178;16.386;2023-11-18T06:06:19;9.70;85.80
32809;DHT22;19159;48.178;16.386;2023-11-18T06:08:46;9.80;85.00
32809;DHT22;19159;48.178;16.386;2023-11-18T06:11:13;9.80;84.80
32809;DHT22;19159;48.178;16.386;2023-11-18T06:13:44;9.70;84.60
32809;DHT22;19159;48.178;16.386;2023-11-18T06:16:22;9.70;84.80
32809;DHT22;19159;48.178;16.386;2023-11-18T06:18:52;9.70;84.90
32809;DHT22;19159;48.178;16.386;2023-11-18T06:21:23;9.70;84.80
32809;DHT22;19159;48.178;16.386;2023-11-18T06:24:00;9.70;84.90
32809;DHT22;19159;48.178;16.386;2023-11-18T06:26:26;9.60;84.80
32809;DHT22;19159;48.178;16.386;2023-11-18T06:28:53;9.60;84.90
32809;DHT22;19159;48.178;16.386;2023-11-18T06:31:20;9.60;85.10
32809;DHT22;19159;48.178;16.386;2023-11-18T06:33:47;9.50;85.30
32809;DHT22;19159;48.178;16.386;2023-11-18T06:36:16;9.50;85.50
32809;DHT22;19159;48.178;16.386;2023-11-18T06:38:43;9.50;85.60
32809;DHT22;19159;48.178;16.386;2023-11-18T06:41:13;9.50;85.70
32809;DHT22;19159;48.178;16.386;2023-11-18T06:43:40;9.50;85.90
32809;DHT22;19159;48.178;16.386;2023-11-18T06:46:30;9.50;85.80
32809;DHT22;19159;48.178;16.386;2023-11-18T06:49:05;9.50;85.80
32809;DHT22;19159;48.178;16.386;2023-11-18T06:51:33;9.50;86.10
32809;DHT22;19159;48.178;16.386;2023-11-18T06:54:01;9.50;85.90
32809;DHT22;19159;48.178;16.386;2023-11-18T06:56:34;9.40;85.90
32809;DHT22;19159;48.178;16.386;2023-11-18T06:59:01;9.50;85.90
32809;DHT22;19159;48.178;16.386;2023-11-18T07:01:27;9.50;85.80
32809;DHT22;19159;48.178;16.386;2023-11-18T07:03:55;9.50;86.00
32809;DHT22;19159;48.178;16.386;2023-11-18T07:06:21;9.50;85.90
32809;DHT22;19159;48.178;16.386;2023-11-18T07:08:52;9.60;86.00
32809;DHT22;19159;48.178;16.386;2023-11-18T07:11:19;9.60;85.90
32809;DHT22;19159;48.178;16.386;2023-11-18T07:13:47;9.60;85.40
32809;DHT22;19159;48.178;16.386;2023-11-18T07:16:13;9.60;85.50
32809;DHT22;19159;48.178;16.386;2023-11-18T07:18:40;9.70;85.60
32809;DHT22;19159;48.178;16.386;2023-11-18T07:21:07;9.70;85.40
32809;DHT22;19159;48.178;16.386;2023-11-18T07:23:34;9.70;85.50
32809;DHT22;19159;48.178;16.386;2023-11-18T07:26:01;9.70;85.40
32809;DHT22;19159;48.178;16.386;2023-11-18T07:28:29;9.70;85.40
32809;DHT22;19159;48.178;16.386;2023-11-18T07:30:55;9.70;85.40
32809;DHT22;19159;48.178;16.386;2023-11-18T07:33:20;9.70;85.50
32809;DHT22;19159;48.178;16.386;2023-11-18T07:35:47;9.80;85.40
32809;DHT22;19159;48.178;16.386;2023-11-18T07:38:14;9.80;85.30
32809;DHT22;19159;48.178;16.386;2023-11-18T07:40:40;9.80;85.10
32809;DHT22;19159;48.178;16.386;2023-11-18T07:43:14;9.80;85.10
32809;DHT22;19159;48.178;16.386;2023-11-18T07:45:40;9.90;85.10
32809;DHT22;19159;48.178;16.386;2023-11-18T07:48:08;10.00;84.90
32809;DHT22;19159;48.178;16.386;2023-11-18T07:50:35;9.90;84.70
32809;DHT22;19159;48.178;16.386;2023-11-18T07:53:01;9.90;84.80
32809;DHT22;19159;48.178;16.386;2023-11-18T07:55:27;9.90;84.70
32809;DHT22;19159;48.178;16.386;2023-11-18T07:57:54;10.00;85.10
32809;DHT22;19159;48.178;16.386;2023-11-18T08:00:20;10.10;85.30
32809;DHT22;19159;48.178;16.386;2023-11-18T08:02:46;10.10;85.50
32809;DHT22;19159;48.178;16.386;2023-11-18T08:05:12;10.10;85.50
32809;DHT22;19159;48.178;16.386;2023-11-18T08:07:43;10.10;85.40
32809;DHT22;19159;48.178;16.386;2023-11-18T08:10:11;10.20;85.40
32809;DHT22;19159;48.178;16.386;2023-11-18T08:12:39;10.20;85.70
32809;DHT22;19159;48.178;16.386;2023-11-18T08:15:06;10.20;86.10
32809;DHT22;19159;48.178;16.386;2023-11-18T08:17:32;10.30;85.80
32809;DHT22;19159;48.178;16.386;2023-11-18T08:19:59;10.30;85.70
32809;DHT22;19159;48.178;16.386;2023-11-18T08:22:25;10.30;85.50
32809;DHT22;19159;48.178;16.386;2023-11-18T08:24:50;10.30;86.00
32809;DHT22;19159;48.178;16.386;2023-11-18T08:27:16;10.50;85.90
32809;DHT22;19159;48.178;16.386;2023-11-18T08:29:42;10.50;85.60
32809;DHT22;19159;48.178;16.386;2023-11-18T08:32:08;10.60;85.60
32809;DHT22;19159;48.178;16.386;2023-11-18T08:34:37;10.60;85.40
32809;DHT22;19159;48.178;16.386;2023-11-18T08:37:04;10.70;85.30
32809;DHT22;19159;48.178;16.386;2023-11-18T08:39:30;10.70;84.90
32809;DHT22;19159;48.178;16.386;2023-11-18T08:41:56;10.70;84.30
32809;DHT22;19159;48.178;16.386;2023-11-18T08:44:22;10.70;84.20
32809;DHT22;19159;48.178;16.386;2023-11-18T08:46:48;10.60;83.70
32809;DHT22;19159;48.178;16.386;2023-11-18T08:49:14;10.50;83.90
32809;DHT22;19159;48.178;16.386;2023-11-18T08:51:49;10.50;83.70
32809;DHT22;19159;48.178;16.386;2023-11-18T08:54:21;10.50;83.90
32809;DHT22;19159;48.178;16.386;2023-11-18T08:57:03;10.50;83.90
32809;DHT22;19159;48.178;16.386;2023-11-18T08:59:29;10.50;84.00
32809;DHT22;19159;48.178;16.386;2023-11-18T09:01:56;10.50;83.80
32809;DHT22;19159;48.178;16.386;2023-11-18T09:04:25;10.60;83.90
32809;DHT22;19159;48.178;16.386;2023-11-18T09:06:51;10.70;83.90
32809;DHT22;19159;48.178;16.386;2023-11-18T09:09:23;10.80;83.80
32809;DHT22;19159;48.178;16.386;2023-11-18T09:11:57;10.80;83.70
32809;DHT22;19159;48.178;16.386;2023-11-18T09:14:26;10.80;83.60
32809;DHT22;19159;48.178;16.386;2023-11-18T09:16:52;10.80;83.30
32809;DHT22;19159;48.178;16.386;2023-11-18T09:19:21;10.90;83.60
32809;DHT22;19159;48.178;16.386;2023-11-18T09:21:47;10.80;83.20
32809;DHT22;19159;48.178;16.386;2023-11-18T09:24:14;10.80;83.30
32809;DHT22;19159;48.178;16.386;2023-11-18T09:26:43;10.80;83.70
32809;DHT22;19159;48.178;16.386;2023-11-18T09:29:13;10.90;83.90
32809;DHT22;19159;48.178;16.386;2023-11-18T09:31:49;11.10;84.30
32809;DHT22;19159;48.178;16.386;2023-11-18T09:34:15;11.30;84.00
32809;DHT22;19159;48.178;16.386;2023-11-18T09:36:43;11.50;84.10
32809;DHT22;19159;48.178;16.386;2023-11-18T09:39:09;12.10;84.80
32809;DHT22;19159;48.178;16.386;2023-11-18T09:41:41;12.40;82.40
32809;DHT22;19159;48.178;16.386;2023-11-18T09:44:07;12.30;80.70
32809;DHT22;19159;48.178;16.386;2023-11-18T09:46:35;12.30;80.50
32809;DHT22;19159;48.178;16.386;2023-11-18T09:51:53;12.10;80.70
32809;DHT22;19159;48.178;16.386;2023-11-18T09:57:38;11.90;81.10
32809;DHT22;19159;48.178;16.386;2023-11-18T10:00:07;11.90;81.20
32809;DHT22;19159;48.178;16.386;2023-11-18T10:02:45;11.60;81.00
32809;DHT22;19159;48.178;16.386;2023-11-18T10:05:12;11.40;81.70
32809;DHT22;19159;48.178;16.386;2023-11-18T10:07:41;11.40;82.10
32809;DHT22;19159;48.178;16.386;2023-11-18T10:10:08;11.30;82.00
32809;DHT22;19159;48.178;16.386;2023-11-18T10:12:43;11.20;82.20
32809;DHT22;19159;48.178;16.386;2023-11-18T10:15:21;11.20;82.80
32809;DHT22;19159;48.178;16.386;2023-11-18T10:17:49;11.30;82.80
32809;DHT22;19159;48.178;16.386;2023-11-18T10:20:43;11.30;82.80
32809;DHT22;19159;48.178;16.386;2023-11-18T10:23:10;11.00;83.20
32809;DHT22;19159;48.178;16.386;2023-11-18T10:25:41;10.90;84.00
32809;DHT22;19159;48.178;16.386;2023-11-18T10:28:38;10.80;84.50
32809;DHT22;19159;48.178;16.386;2023-11-18T10:31:06;10.80;84.90
32809;DHT22;19159;48.178;16.386;2023-11-18T10:33:35;10.80;85.00
32809;DHT22;19159;48.178;16.386;2023-11-18T10:36:03;10.80;85.30
32809;DHT22;19159;48.178;16.386;2023-11-18T10:38:31;10.80;85.40
32809;DHT22;19159;48.178;16.386;2023-11-18T10:40:58;10.80;85.10
32809;DHT22;19159;48.178;16.386;2023-11-18T10:43:26;10.80;85.30
32809;DHT22;19159;48.178;16.386;2023-11-18T10:46:05;10.80;85.40
32809;DHT22;19159;48.178;16.386;2023-11-18T10:48:42;10.70;85.50
32809;DHT22;19159;48.178;16.386;2023-11-18T10:51:12;10.50;85.50
32809;DHT22;19159;48.178;16.386;2023-11-18T10:53:40;10.50;86.10
32809;DHT22;19159;48.178;16.386;2023-11-18T10:56:25;10.50;86.20
32809;DHT22;19159;48.178;16.386;2023-11-18T10:59:06;10.60;86.60
32809;DHT22;19159;48.178;16.386;2023-11-18T11:01:35;10.80;86.30
32809;DHT22;19159;48.178;16.386;2023-11-18T11:04:04;10.70;85.40
32809;DHT22;19159;48.178;16.386;2023-11-18T11:06:32;10.80;85.30
32809;DHT22;19159;48.178;16.386;2023-11-18T11:08:58;10.90;85.20
32809;DHT22;19159;48.178;16.386;2023-11-18T11:11:25;11.00;84.90
32809;DHT22;19159;48.178;16.386;2023-11-18T11:14:00;11.10;85.00
32809;DHT22;19159;48.178;16.386;2023-11-18T11:16:38;11.10;84.30
32809;DHT22;19159;48.178;16.386;2023-11-18T11:19:13;11.10;84.50
32809;DHT22;19159;48.178;16.386;2023-11-18T11:21:52;11.20;84.40
32809;DHT22;19159;48.178;16.386;2023-11-18T11:24:27;11.20;83.60
32809;DHT22;19159;48.178;16.386;2023-11-18T11:27:09;11.20;83.80
32809;DHT22;19159;48.178;16.386;2023-11-18T11:29:52;11.30;83.80
32809;DHT22;19159;48.178;16.386;2023-11-18T11:32:35;11.40;83.40
32809;DHT22;19159;48.178;16.386;2023-11-18T11:35:07;11.40;83.20
32809;DHT22;19159;48.178;16.386;2023-11-18T11:37:43;11.40;83.10
32809;DHT22;19159;48.178;16.386;2023-11-18T11:40:11;11.40;82.80
32809;DHT22;19159;48.178;16.386;2023-11-18T11:42:40;11.40;83.20
32809;DHT22;19159;48.178;16.386;2023-11-18T11:45:08;11.30;83.30
32809;DHT22;19159;48.178;16.386;2023-11-18T11:47:47;11.40;83.40
32809;DHT22;19159;48.178;16.386;2023-11-18T11:50:26;11.50;83.20
32809;DHT22;19159;48.178;16.386;2023-11-18T11:53:04;11.40;82.90
32809;DHT22;19159;48.178;16.386;2023-11-18T11:55:48;11.40;82.90
32809;DHT22;19159;48.178;16.386;2023-11-18T11:58:28;11.60;82.90
32809;DHT22;19159;48.178;16.386;2023-11-18T12:00:54;11.60;82.50
32809;DHT22;19159;48.178;16.386;2023-11-18T12:03:21;11.50;82.40
32809;DHT22;19159;48.178;16.386;2023-11-18T12:05:49;11.50;82.50
32809;DHT22;19159;48.178;16.386;2023-11-18T12:08:17;11.50;82.60
32809;DHT22;19159;48.178;16.386;2023-11-18T12:10:51;11.40;82.60
32809;DHT22;19159;48.178;16.386;2023-11-18T12:13:21;11.40;82.90
32809;DHT22;19159;48.178;16.386;2023-11-18T12:15:54;11.40;83.20
32809;DHT22;19159;48.178;16.386;2023-11-18T12:18:23;11.30;83.00
32809;DHT22;19159;48.178;16.386;2023-11-18T12:20:50;11.30;83.20
32809;DHT22;19159;48.178;16.386;2023-11-18T12:23:27;11.30;83.30
32809;DHT22;19159;48.178;16.386;2023-11-18T12:25:54;11.20;83.40
32809;DHT22;19159;48.178;16.386;2023-11-18T12:28:25;11.30;83.50
32809;DHT22;19159;48.178;16.386;2023-11-18T12:30:53;11.20;83.40
32809;DHT22;19159;48.178;16.386;2023-11-18T12:33:24;11.30;83.60
32809;DHT22;19159;48.178;16.386;2023-11-18T12:39:02;11.40;83.70
32809;DHT22;19159;48.178;16.386;2023-11-18T12:41:40;11.40;83.30
32809;DHT22;19159;48.178;16.386;2023-11-18T12:44:29;11.40;83.40
32809;DHT22;19159;48.178;16.386;2023-11-18T12:47:05;11.40;83.40
32809;DHT22;19159;48.178;16.386;2023-11-18T12:49:43;11.50;84.20
32809;DHT22;19159;48.178;16.386;2023-11-18T12:52:10;11.50;84.20
32809;DHT22;19159;48.178;16.386;2023-11-18T12:54:36;11.50;83.80
32809;DHT22;19159;48.178;16.386;2023-11-18T12:57:09;11.50;83.70
32809;DHT22;19159;48.178;16.386;2023-11-18T12:59:36;11.50;83.50
32809;DHT22;19159;48.178;16.386;2023-11-18T13:02:10;11.60;83.30
32809;DHT22;19159;48.178;16.386;2023-11-18T13:04:43;11.50;82.90
32809;DHT22;19159;48.178;16.386;2023-11-18T13:07:15;11.60;82.80
32809;DHT22;19159;48.178;16.386;2023-11-18T13:09:43;11.60;82.90
32809;DHT22;19159;48.178;16.386;2023-11-18T13:12:11;11.60;82.80
32809;DHT22;19159;48.178;16.386;2023-11-18T13:14:41;11.60;82.50
32809;DHT22;19159;48.178;16.386;2023-11-18T13:17:12;11.60;82.30
32809;DHT22;19159;48.178;16.386;2023-11-18T13:19:41;11.60;82.00
32809;DHT22;19159;48.178;16.386;2023-11-18T13:22:08;11.60;82.20
32809;DHT22;19159;48.178;16.386;2023-11-18T13:24:35;11.50;81.50
32809;DHT22;19159;48.178;16.386;2023-11-18T13:27:02;11.50;81.20
32809;DHT22;19159;48.178;16.386;2023-11-18T13:29:32;11.50;81.20
32809;DHT22;19159;48.178;16.386;2023-11-18T13:32:00;11.40;80.40
32809;DHT22;19159;48.178;16.386;2023-11-18T13:34:32;11.30;79.80
32809;DHT22;19159;48.178;16.386;2023-11-18T13:37:00;11.30;80.10
32809;DHT22;19159;48.178;16.386;2023-11-18T13:39:26;11.30;80.10
32809;DHT22;19159;48.178;16.386;2023-11-18T13:41:56;11.40;80.20
32809;DHT22;19159;48.178;16.386;2023-11-18T13:44:36;11.40;79.90
32809;DHT22;19159;48.178;16.386;2023-11-18T13:47:07;11.40;80.00
32809;DHT22;19159;48.178;16.386;2023-11-18T13:49:33;11.30;79.90
32809;DHT22;19159;48.178;16.386;2023-11-18T13:52:02;11.30;79.80
32809;DHT22;19159;48.178;16.386;2023-11-18T13:54:29;11.20;80.20
32809;DHT22;19159;48.178;16.386;2023-11-18T13:57:04;11.20;80.40
32809;DHT22;19159;48.178;16.386;2023-11-18T13:59:31;11.10;80.50
32809;DHT22;19159;48.178;16.386;2023-11-18T14:01:58;11.10;80.80
32809;DHT22;19159;48.178;16.386;2023-11-18T14:04:30;11.10;80.70
32809;DHT22;19159;48.178;16.386;2023-11-18T14:07:04;11.00;80.70
32809;DHT22;19159;48.178;16.386;2023-11-18T14:09:31;11.00;80.60
32809;DHT22;19159;48.178;16.386;2023-11-18T14:12:01;11.00;80.40
32809;DHT22;19159;48.178;16.386;2023-11-18T14:14:27;10.90;79.90
32809;DHT22;19159;48.178;16.386;2023-11-18T14:16:54;10.90;81.20
32809;DHT22;19159;48.178;16.386;2023-11-18T14:19:23;10.90;80.60
32809;DHT22;19159;48.178;16.386;2023-11-18T14:21:51;10.80;80.40
32809;DHT22;19159;48.178;16.386;2023-11-18T14:24:16;10.90;80.40
32809;DHT22;19159;48.178;16.386;2023-11-18T14:26:43;11.00;79.90
32809;DHT22;19159;48.178;16.386;2023-11-18T14:29:09;11.00;79.40
32809;DHT22;19159;48.178;16.386;2023-11-18T14:31:37;11.00;79.50
32809;DHT22;19159;48.178;16.386;2023-11-18T14:34:03;11.00;79.00
32809;DHT22;19159;48.178;16.386;2023-11-18T14:36:29;10.90;79.30
32809;DHT22;19159;48.178;16.386;2023-11-18T14:38:55;11.00;79.20
32809;DHT22;19159;48.178;16.386;2023-11-18T14:41:21;11.00;79.10
32809;DHT22;19159;48.178;16.386;2023-11-18T14:43:51;11.10;78.80
32809;DHT22;19159;48.178;16.386;2023-11-18T14:46:17;11.00;78.70
32809;DHT22;19159;48.178;16.386;2023-11-18T14:48:44;11.00;78.60
32809;DHT22;19159;48.178;16.386;2023-11-18T14:51:10;11.00;78.40
32809;DHT22;19159;48.178;16.386;2023-11-18T14:53:36;10.90;78.10
32809;DHT22;19159;48.178;16.386;2023-11-18T14:56:03;10.90;78.20
32809;DHT22;19159;48.178;16.386;2023-11-18T14:58:31;10.80;78.00
32809;DHT22;19159;48.178;16.386;2023-11-18T15:00:58;10.80;77.90
32809;DHT22;19159;48.178;16.386;2023-11-18T15:03:25;10.80;77.90
32809;DHT22;19159;48.178;16.386;2023-11-18T15:05:51;10.90;77.90
32809;DHT22;19159;48.178;16.386;2023-11-18T15:08:17;10.80;77.90
32809;DHT22;19159;48.178;16.386;2023-11-18T15:10:43;10.80;78.00
32809;DHT22;19159;48.178;16.386;2023-11-18T15:13:10;10.90;77.90
32809;DHT22;19159;48.178;16.386;2023-11-18T15:15:41;10.90;77.80
32809;DHT22;19159;48.178;16.386;2023-11-18T15:18:07;10.80;77.50
32809;DHT22;19159;48.178;16.386;2023-11-18T15:20:43;10.80;77.70
32809;DHT22;19159;48.178;16.386;2023-11-18T15:23:13;10.80;77.70
32809;DHT22;19159;48.178;16.386;2023-11-18T15:25:40;10.90;78.00
32809;DHT22;19159;48.178;16.386;2023-11-18T15:28:06;10.90;77.70
32809;DHT22;19159;48.178;16.386;2023-11-18T15:30:39;10.90;77.50
32809;DHT22;19159;48.178;16.386;2023-11-18T15:33:05;10.80;77.30
32809;DHT22;19159;48.178;16.386;2023-11-18T15:35:35;10.80;78.20
32809;DHT22;19159;48.178;16.386;2023-11-18T15:38:04;10.80;77.60
32809;DHT22;19159;48.178;16.386;2023-11-18T15:40:36;10.80;77.50
32809;DHT22;19159;48.178;16.386;2023-11-18T15:43:05;10.70;77.00